createdAt,value
2022-10-19T00:02:17.618Z,1.23
2022-10-19T00:05:03.322Z,1.40
2022-10-19T00:07:48.746Z,1.30
2022-10-19T00:10:34.226Z,1.23
2022-10-19T00:13:19.692Z,1.30
2022-10-19T00:16:12.974Z,1.33
2022-10-19T00:18:59.878Z,1.20
2022-10-19T00:21:45.437Z,1.30
2022-10-19T00:24:30.857Z,1.40
2022-10-19T00:27:17.656Z,1.10
2022-10-19T00:30:03.352Z,1.00
2022-10-19T00:32:48.754Z,1.27
2022-10-19T00:35:34.304Z,1.20
2022-10-19T00:38:21.169Z,1.42
2022-10-19T00:41:06.155Z,1.15
2022-10-19T00:44:22.820Z,1.00
2022-10-19T00:47:08.533Z,1.15
2022-10-19T00:49:55.015Z,1.63
2022-10-19T00:52:40.401Z,1.50
2022-10-19T00:55:26.184Z,1.23
2022-10-19T00:58:11.903Z,1.23
2022-10-19T01:00:58.669Z,1.50
2022-10-19T01:03:45.256Z,1.10
2022-10-19T01:06:31.041Z,1.02
2022-10-19T01:09:17.035Z,1.40
2022-10-19T01:12:35.804Z,1.70
2022-10-19T01:15:27.191Z,1.55
2022-10-19T01:18:19.328Z,1.17
2022-10-19T01:21:25.261Z,1.08
2022-10-19T01:24:21.417Z,1.10
2022-10-19T01:27:14.621Z,0.88
2022-10-19T01:30:14.416Z,1.05
2022-10-19T01:33:03.972Z,1.00
2022-10-19T01:36:13.450Z,1.20
2022-10-19T01:39:18.747Z,1.20
2022-10-19T01:42:17.191Z,1.00
2022-10-19T01:45:05.866Z,1.35
2022-10-19T01:48:05.085Z,1.17
2022-10-19T01:51:12.727Z,1.08
2022-10-19T01:54:02.051Z,0.98
2022-10-19T01:56:49.500Z,0.80
2022-10-19T01:59:36.230Z,1.10
2022-10-19T02:02:27.951Z,1.05
2022-10-19T02:05:14.085Z,0.80
2022-10-19T02:08:04.430Z,0.88
2022-10-19T02:10:50.534Z,1.00
2022-10-19T02:13:37.708Z,1.00
2022-10-19T02:16:40.584Z,0.80
2022-10-19T02:19:26.236Z,1.10
2022-10-19T02:22:12.786Z,0.90
2022-10-19T02:24:58.757Z,0.60
2022-10-19T02:27:44.326Z,0.65
2022-10-19T02:30:29.506Z,0.80
2022-10-19T02:33:15.636Z,0.90
2022-10-19T02:36:01.189Z,0.60
2022-10-19T02:38:46.825Z,0.80
2022-10-19T02:42:01.808Z,0.80
2022-10-19T02:44:58.565Z,0.80
2022-10-19T02:48:07.544Z,0.60
2022-10-19T02:50:53.149Z,0.57
2022-10-19T02:53:38.432Z,0.57
2022-10-19T02:56:23.834Z,0.50
2022-10-19T02:59:09.228Z,0.50
2022-10-19T03:01:54.715Z,0.50
2022-10-19T03:04:41.693Z,0.50
2022-10-19T03:07:26.994Z,0.70
2022-10-19T03:10:12.775Z,0.70
2022-10-19T03:12:58.717Z,0.70
2022-10-19T03:15:43.896Z,0.70
2022-10-19T03:18:29.427Z,0.57
2022-10-19T03:21:15.058Z,0.80
2022-10-19T03:24:00.756Z,0.70
2022-10-19T03:26:46.169Z,0.65
2022-10-19T03:29:31.817Z,0.70
2022-10-19T03:32:17.396Z,0.88
2022-10-19T03:35:02.675Z,0.60
2022-10-19T03:37:48.255Z,0.88
2022-10-19T03:40:33.822Z,0.90
2022-10-19T03:43:19.052Z,0.75
2022-10-19T03:46:04.439Z,0.80
2022-10-19T03:48:50.564Z,0.70
2022-10-19T03:51:36.551Z,0.75
2022-10-19T03:54:24.986Z,0.88
2022-10-19T03:57:12.992Z,0.88
2022-10-19T03:59:58.192Z,0.80
2022-10-19T04:02:43.408Z,1.00
2022-10-19T04:05:28.754Z,0.90
2022-10-19T04:08:14.213Z,1.02
2022-10-19T04:11:09.212Z,1.20
2022-10-19T04:13:55.689Z,0.77
2022-10-19T04:16:41.491Z,1.10
2022-10-19T04:19:26.784Z,0.90
2022-10-19T04:22:12.185Z,1.00
2022-10-19T04:24:57.811Z,0.85
2022-10-19T04:27:43.263Z,0.80
2022-10-19T04:30:28.739Z,1.05
2022-10-19T04:33:14.385Z,0.80
2022-10-19T04:36:05.527Z,1.02
2022-10-19T04:38:51.189Z,1.10
2022-10-19T04:41:38.291Z,0.95
2022-10-19T04:47:14.133Z,1.05
2022-10-19T04:49:59.805Z,1.10
2022-10-19T04:52:45.643Z,1.00
2022-10-19T04:55:30.817Z,0.82
2022-10-19T04:58:16.607Z,1.00
2022-10-19T05:01:17.319Z,0.77
2022-10-19T05:04:03.398Z,1.00
2022-10-19T05:06:48.658Z,0.80
2022-10-19T05:09:34.140Z,1.00
2022-10-19T05:12:19.448Z,0.90
2022-10-19T05:15:05.122Z,1.10
2022-10-19T05:17:50.409Z,1.30
2022-10-19T05:20:35.733Z,1.67
2022-10-19T05:23:21.249Z,1.08
2022-10-19T05:26:09.648Z,1.25
2022-10-19T05:28:59.123Z,1.40
2022-10-19T05:31:44.904Z,1.10
2022-10-19T05:34:29.960Z,1.33
2022-10-19T05:37:16.985Z,1.10
2022-10-19T05:40:02.323Z,1.00
2022-10-19T05:42:47.816Z,1.40
2022-10-19T05:45:33.373Z,0.85
2022-10-19T05:48:18.609Z,0.95
2022-10-19T05:51:06.823Z,0.80
2022-10-19T05:53:53.676Z,1.00
2022-10-19T05:56:40.564Z,1.10
2022-10-19T05:59:26.243Z,0.93
2022-10-19T06:02:14.394Z,1.00
2022-10-19T06:04:59.809Z,0.90
2022-10-19T06:07:45.379Z,0.90
2022-10-19T06:10:30.775Z,0.90
2022-10-19T06:13:18.441Z,1.05
2022-10-19T06:16:05.298Z,0.98
2022-10-19T06:18:50.716Z,1.08
2022-10-19T06:21:35.860Z,1.08
2022-10-19T06:24:21.331Z,1.20
2022-10-19T06:27:06.950Z,1.30
2022-10-19T06:29:52.844Z,1.30
2022-10-19T06:32:38.333Z,1.42
2022-10-19T06:35:24.151Z,1.38
2022-10-19T06:38:09.706Z,1.05
2022-10-19T06:40:59.532Z,1.10
2022-10-19T06:43:50.145Z,1.20
2022-10-19T06:46:35.780Z,0.85
2022-10-19T06:49:20.791Z,1.85
2022-10-19T06:52:07.570Z,1.13
2022-10-19T06:54:52.806Z,1.10
2022-10-19T06:57:38.707Z,1.05
2022-10-19T07:00:23.893Z,0.82
2022-10-19T07:03:09.545Z,1.00
2022-10-19T07:06:00.367Z,1.10
2022-10-19T07:08:45.997Z,1.20
2022-10-19T07:11:31.655Z,1.70
2022-10-19T07:14:17.495Z,1.00
2022-10-19T07:17:02.819Z,1.30
2022-10-19T07:19:48.444Z,1.10
2022-10-19T07:22:34.127Z,1.20
2022-10-19T07:25:19.667Z,1.05
2022-10-19T07:28:05.266Z,0.90
2022-10-19T07:30:50.758Z,0.95
2022-10-19T07:33:37.146Z,1.02
2022-10-19T07:36:22.962Z,1.05
2022-10-19T07:39:08.550Z,1.10
2022-10-19T07:41:53.806Z,1.13
2022-10-19T07:44:39.106Z,1.10
2022-10-19T07:47:24.524Z,1.13
2022-10-19T07:50:10.233Z,1.20
2022-10-19T07:52:55.787Z,1.30
2022-10-19T07:55:41.401Z,0.80
2022-10-19T07:58:27.108Z,1.00
2022-10-19T08:01:18.032Z,1.00
2022-10-19T08:07:09.846Z,0.82
2022-10-19T08:09:55.336Z,1.15
2022-10-19T08:12:40.838Z,1.35
2022-10-19T08:15:26.524Z,1.10
2022-10-19T08:18:11.634Z,1.00
2022-10-19T08:20:57.186Z,1.33
2022-10-19T08:23:42.536Z,1.67
2022-10-19T08:26:33.795Z,1.10
2022-10-19T08:29:20.607Z,1.20
2022-10-19T08:32:06.030Z,1.27
2022-10-19T08:34:51.298Z,1.48
2022-10-19T08:37:44.728Z,1.77
2022-10-19T08:40:31.185Z,1.20
2022-10-19T08:43:30.472Z,1.15
2022-10-19T08:46:26.197Z,1.17
2022-10-19T08:49:19.058Z,1.30
2022-10-19T08:52:10.585Z,1.15
2022-10-19T08:55:02.942Z,0.98
2022-10-19T08:58:13.230Z,1.10
2022-10-19T09:01:11.093Z,1.02
2022-10-19T09:04:03.882Z,1.27
2022-10-19T09:09:51.656Z,1.27
2022-10-19T09:12:58.802Z,1.05
2022-10-19T09:15:46.166Z,1.02
2022-10-19T09:18:34.029Z,0.95
2022-10-19T09:21:30.905Z,1.00
2022-10-19T09:24:49.037Z,0.85
2022-10-19T09:27:45.617Z,1.10
2022-10-19T09:30:34.261Z,0.90
2022-10-19T09:33:31.369Z,1.27
2022-10-19T09:36:22.947Z,1.10
2022-10-19T09:39:14.136Z,1.23
2022-10-19T09:42:20.723Z,1.17
2022-10-19T09:45:19.748Z,1.00
2022-10-19T09:48:19.238Z,0.77
2022-10-19T09:51:12.287Z,0.90
2022-10-19T09:53:57.989Z,1.00
2022-10-19T09:56:53.506Z,1.00
2022-10-19T09:59:38.529Z,1.20
2022-10-19T10:02:34.293Z,0.95
2022-10-19T10:05:24.909Z,0.90
2022-10-19T10:08:17.128Z,1.10
2022-10-19T10:11:10.469Z,1.00
2022-10-19T10:13:57.945Z,0.90
2022-10-19T10:16:43.414Z,0.90
2022-10-19T10:19:31.132Z,0.90
2022-10-19T10:22:32.141Z,0.85
2022-10-19T10:25:18.900Z,1.15
2022-10-19T10:28:18.942Z,0.90
2022-10-19T10:31:07.519Z,1.02
2022-10-19T10:34:10.742Z,1.10
2022-10-19T10:37:16.226Z,1.10
2022-10-19T10:40:03.977Z,0.85
2022-10-19T10:42:52.460Z,0.80
2022-10-19T10:45:51.308Z,0.68
2022-10-19T10:48:41.009Z,1.10
2022-10-19T10:51:49.215Z,0.90
2022-10-19T10:54:37.459Z,0.63
2022-10-19T10:57:25.446Z,0.90
2022-10-19T11:00:20.107Z,0.98
2022-10-19T11:03:19.268Z,0.80
2022-10-19T11:06:04.645Z,1.15
2022-10-19T11:09:15.857Z,0.90
2022-10-19T11:12:15.236Z,1.10
2022-10-19T11:15:18.781Z,0.90
2022-10-19T11:18:10.297Z,0.88
2022-10-19T11:21:02.540Z,0.75
2022-10-19T11:24:26.294Z,1.00
2022-10-19T11:27:43.520Z,0.70
2022-10-19T11:30:33.367Z,0.80
2022-10-19T11:39:30.441Z,1.20
2022-10-19T11:42:43.006Z,1.13
2022-10-19T11:45:36.055Z,0.90
2022-10-19T11:48:44.176Z,1.10
2022-10-19T11:51:59.061Z,0.90
2022-10-19T11:54:57.936Z,1.05
2022-10-19T11:58:02.100Z,0.95
2022-10-19T12:01:00.138Z,1.20
2022-10-19T12:04:22.903Z,0.90
2022-10-19T12:07:41.280Z,1.33
2022-10-19T12:10:59.116Z,0.88
2022-10-19T12:14:00.704Z,1.10
2022-10-19T12:16:51.856Z,1.40
2022-10-19T12:19:49.188Z,1.30
2022-10-19T12:22:37.392Z,0.80
2022-10-19T12:25:23.654Z,1.20
2022-10-19T12:28:16.545Z,1.15
2022-10-19T12:31:02.648Z,1.00
2022-10-19T12:34:06.976Z,1.23
2022-10-19T12:37:00.707Z,1.27
2022-10-19T12:40:11.550Z,1.20
2022-10-19T12:43:12.664Z,1.42
2022-10-19T12:46:35.804Z,1.40
2022-10-19T12:52:13.996Z,1.10
2022-10-19T12:55:10.025Z,1.27
2022-10-19T12:58:19.647Z,1.02
2022-10-19T13:01:07.061Z,1.00
2022-10-19T13:04:18.013Z,1.08
2022-10-19T13:07:08.497Z,1.13
2022-10-19T13:10:02.710Z,1.83
2022-10-19T13:12:49.509Z,1.40
2022-10-19T13:15:38.233Z,1.20
2022-10-19T13:19:01.168Z,1.27
2022-10-19T13:25:19.510Z,1.30
2022-10-19T13:28:07.832Z,1.20
2022-10-19T13:30:54.647Z,1.00
2022-10-19T13:33:45.803Z,1.20
2022-10-19T13:36:31.821Z,1.30
2022-10-19T13:39:17.484Z,1.48
2022-10-19T13:42:02.920Z,1.10
2022-10-19T13:44:48.517Z,1.15
2022-10-19T13:47:39.536Z,1.50
2022-10-19T13:50:43.597Z,1.00
2022-10-19T13:53:49.842Z,1.10
2022-10-19T13:56:49.036Z,1.00
2022-10-19T14:00:20.172Z,1.48
2022-10-19T14:03:46.370Z,1.17
2022-10-19T14:06:44.807Z,1.52
2022-10-19T14:09:36.937Z,1.27
2022-10-19T14:15:33.842Z,1.40
2022-10-19T14:18:28.320Z,1.25
2022-10-19T14:21:13.598Z,1.35
2022-10-19T14:24:00.054Z,1.20
2022-10-19T14:26:46.925Z,1.30
2022-10-19T14:29:56.424Z,1.58
2022-10-19T14:32:41.537Z,1.73
2022-10-19T14:35:39.302Z,1.40
2022-10-19T14:38:37.192Z,1.33
2022-10-19T14:41:28.835Z,1.50
2022-10-19T14:44:36.270Z,1.37
2022-10-19T14:47:27.055Z,1.67
2022-10-19T14:50:12.785Z,1.77
2022-10-19T14:53:10.230Z,1.73
2022-10-19T14:55:59.152Z,1.20
2022-10-19T14:58:54.286Z,1.60
2022-10-19T15:01:40.538Z,1.50
2022-10-19T15:04:34.412Z,1.50
2022-10-19T15:07:40.769Z,1.80
2022-10-19T15:10:40.984Z,2.03
2022-10-19T15:13:36.869Z,1.83
2022-10-19T15:16:56.988Z,1.70
2022-10-19T15:19:42.091Z,2.10
2022-10-19T15:22:33.701Z,1.73
2022-10-19T15:25:36.980Z,1.63
2022-10-19T15:28:41.449Z,1.70
2022-10-19T15:31:29.332Z,1.58
2022-10-19T15:34:26.949Z,1.70
2022-10-19T15:37:20.142Z,1.70
2022-10-19T15:40:26.150Z,1.52
2022-10-19T15:43:35.696Z,1.60
2022-10-19T15:46:32.848Z,1.83
2022-10-19T15:49:51.341Z,1.55
2022-10-19T15:52:36.837Z,1.60
2022-10-19T15:55:22.388Z,1.90
2022-10-19T15:58:10.587Z,1.60
2022-10-19T16:00:56.064Z,1.88
2022-10-19T16:03:41.548Z,1.92
2022-10-19T16:06:30.551Z,2.10
2022-10-19T16:09:21.267Z,1.40
2022-10-19T16:12:06.852Z,1.90
2022-10-19T16:14:53.699Z,1.83
2022-10-19T16:17:39.801Z,2.03
2022-10-19T16:20:26.376Z,1.83
2022-10-19T16:23:12.902Z,2.10
2022-10-19T16:25:58.210Z,2.40
2022-10-19T16:28:44.335Z,2.10
2022-10-19T16:31:29.657Z,2.30
2022-10-19T16:34:15.246Z,2.60
2022-10-19T16:37:04.065Z,2.35
2022-10-19T16:39:52.263Z,3.17
2022-10-19T16:42:38.103Z,2.67
2022-10-19T16:45:23.508Z,2.50
2022-10-19T16:48:12.681Z,2.58
2022-10-19T16:51:28.049Z,2.08
2022-10-19T16:54:15.448Z,2.85
2022-10-19T16:57:03.667Z,2.70
2022-10-19T17:02:44.471Z,2.67
2022-10-19T17:05:31.710Z,2.90
2022-10-19T17:08:17.293Z,2.80
2022-10-19T17:11:24.098Z,3.10
2022-10-19T17:14:12.561Z,3.08
2022-10-19T17:16:58.009Z,3.67
2022-10-19T17:19:43.671Z,3.00
2022-10-19T17:22:29.016Z,3.40
2022-10-19T17:25:14.540Z,3.50
2022-10-19T17:27:59.882Z,3.28
2022-10-19T17:30:47.585Z,3.90
2022-10-19T17:33:33.126Z,3.25
2022-10-19T17:36:25.094Z,3.28
2022-10-19T17:39:17.444Z,3.58
2022-10-19T17:42:04.864Z,3.72
2022-10-19T17:44:50.372Z,3.92
2022-10-19T17:47:35.940Z,3.70
2022-10-19T17:50:22.247Z,3.28
2022-10-19T17:53:07.541Z,3.60
2022-10-19T17:55:52.953Z,3.35
2022-10-19T17:58:39.908Z,2.85
2022-10-19T18:01:26.277Z,3.10
2022-10-19T18:04:11.816Z,3.58
2022-10-19T18:06:57.153Z,3.25
2022-10-19T18:09:42.765Z,3.10
2022-10-19T18:12:28.121Z,3.58
2022-10-19T18:15:13.581Z,3.92
2022-10-19T18:17:59.407Z,3.85
2022-10-19T18:20:44.915Z,3.10
2022-10-19T18:23:29.920Z,3.65
2022-10-19T18:26:19.664Z,3.47
2022-10-19T18:29:21.381Z,3.20
2022-10-19T18:34:56.812Z,3.25
2022-10-19T18:37:42.238Z,3.60
2022-10-19T18:40:27.704Z,3.40
2022-10-19T18:43:13.263Z,3.65
2022-10-19T18:46:00.101Z,3.40
2022-10-19T18:48:46.094Z,3.47
2022-10-19T18:51:31.971Z,3.47
2022-10-19T18:54:17.544Z,3.53
2022-10-19T18:57:02.887Z,3.65
2022-10-19T18:59:48.332Z,3.60
2022-10-19T19:02:45.666Z,3.60
2022-10-19T19:05:33.052Z,3.03
2022-10-19T19:08:18.475Z,2.78
2022-10-19T19:11:21.985Z,3.50
2022-10-19T19:14:16.339Z,3.30
2022-10-19T19:17:01.587Z,3.00
2022-10-19T19:19:46.904Z,3.28
2022-10-19T19:22:33.138Z,3.55
2022-10-19T19:25:18.488Z,3.38
2022-10-19T19:28:04.096Z,3.30
2022-10-19T19:30:49.665Z,3.92
2022-10-19T19:33:35.715Z,3.45
2022-10-19T19:36:21.346Z,3.05
2022-10-19T19:39:06.915Z,3.33
2022-10-19T19:41:52.199Z,3.10
2022-10-19T19:44:37.873Z,3.10
2022-10-19T19:47:23.812Z,3.30
2022-10-19T19:50:09.557Z,3.53
2022-10-19T19:52:54.785Z,3.58
2022-10-19T19:55:40.294Z,3.38
2022-10-19T19:58:26.142Z,3.35
2022-10-19T20:01:18.223Z,3.78
2022-10-19T20:04:04.129Z,3.63
2022-10-19T20:06:49.781Z,3.33
2022-10-19T20:09:35.136Z,3.35
2022-10-19T20:12:20.825Z,3.80
2022-10-19T20:15:06.713Z,3.17
2022-10-19T20:17:52.093Z,3.40
2022-10-19T20:20:39.709Z,3.67
2022-10-19T20:23:25.183Z,3.10
2022-10-19T20:26:18.692Z,3.55
2022-10-19T20:29:04.911Z,3.63
2022-10-19T20:31:49.987Z,3.50
2022-10-19T20:34:35.930Z,3.83
2022-10-19T20:37:21.858Z,3.40
2022-10-19T20:40:08.903Z,4.00
2022-10-19T20:42:56.252Z,3.72
2022-10-19T20:45:41.421Z,3.40
2022-10-19T20:48:26.824Z,3.45
2022-10-19T20:51:21.176Z,3.50
2022-10-19T20:54:09.748Z,3.78
2022-10-19T20:56:55.084Z,3.60
2022-10-19T20:59:40.495Z,3.90
2022-10-19T21:02:26.396Z,3.75
2022-10-19T21:05:11.825Z,3.67
2022-10-19T21:07:57.694Z,3.63
2022-10-19T21:10:42.881Z,3.70
2022-10-19T21:13:28.338Z,3.65
2022-10-19T21:16:18.669Z,4.10
2022-10-19T21:19:10.580Z,3.53
2022-10-19T21:22:01.560Z,3.28
2022-10-19T21:24:46.870Z,3.63
2022-10-19T21:27:32.350Z,3.50
2022-10-19T21:30:17.743Z,3.15
2022-10-19T21:33:03.189Z,3.60
2022-10-19T21:38:39.477Z,3.30
2022-10-19T21:41:26.387Z,3.85
2022-10-19T21:44:12.237Z,3.28
2022-10-19T21:46:57.649Z,3.20
2022-10-19T21:49:43.065Z,3.33
2022-10-19T21:52:28.705Z,3.67
2022-10-19T21:55:14.181Z,3.30
2022-10-19T21:57:59.632Z,3.53
2022-10-19T22:00:44.904Z,3.60
2022-10-19T22:03:30.520Z,3.75
2022-10-19T22:06:16.023Z,3.22
2022-10-19T22:09:02.881Z,3.90
2022-10-19T22:11:48.721Z,3.70
2022-10-19T22:14:34.030Z,3.72
2022-10-19T22:17:19.472Z,3.90
2022-10-19T22:20:05.639Z,3.53
2022-10-19T22:22:52.800Z,3.92
2022-10-19T22:25:40.263Z,3.42
2022-10-19T22:28:26.277Z,3.70
2022-10-19T22:31:12.334Z,4.00
2022-10-19T22:34:00.107Z,3.80
2022-10-19T22:36:45.693Z,3.90
2022-10-19T22:39:31.000Z,3.40
2022-10-19T22:42:28.614Z,3.85
2022-10-19T22:45:14.149Z,3.92
2022-10-19T22:47:59.744Z,3.85
2022-10-19T22:50:45.565Z,3.58
2022-10-19T22:53:31.014Z,3.80
2022-10-19T22:56:16.284Z,4.20
2022-10-19T22:59:02.817Z,3.60
2022-10-19T23:01:48.350Z,3.53
2022-10-19T23:04:34.184Z,3.65
2022-10-19T23:07:19.530Z,4.15
2022-10-19T23:10:06.242Z,3.88
2022-10-19T23:12:52.417Z,4.07
2022-10-19T23:15:41.704Z,4.07
2022-10-19T23:18:33.842Z,4.18
2022-10-19T23:21:19.168Z,4.20
2022-10-19T23:24:04.555Z,3.95
2022-10-19T23:26:50.123Z,4.07
2022-10-19T23:29:35.361Z,4.43
2022-10-19T23:32:20.637Z,3.90
2022-10-19T23:35:07.279Z,4.07
2022-10-19T23:37:52.619Z,4.47
2022-10-19T23:40:38.010Z,4.75
2022-10-19T23:43:23.438Z,4.75
2022-10-19T23:46:09.242Z,4.20
2022-10-19T23:48:54.625Z,4.35
2022-10-19T23:51:39.880Z,4.28
2022-10-19T23:54:25.503Z,4.57
2022-10-19T23:57:10.480Z,4.82
2022-10-19T23:59:55.802Z,4.72
